Time;durP1;ratioP1;P1;durP2;ratioP2;P2;SDS_P1;SDS_P2;PMS_P1;PMS_P2;Temp;Humidity;BMP_temperature;BMP_pressure;BME280_temperature;BME280_humidity;BME280_pressure;Samples;Min_cycle;Max_cycle;Signal;HPM_P1;HPM_P2
2022/09/13 00:01:03;;;;;;;21.58;19.98;;;;;;;17.50;100.00;100931.13;5074599;28;20031;-74
2022/09/13 00:03:29;;;;;;;22.95;21.25;;;;;;;17.50;100.00;100923.94;5071671;28;20016;-74
2022/09/13 00:05:55;;;;;;;24.00;22.42;;;;;;;17.52;100.00;100921.88;5074439;28;20027;-74
2022/09/13 00:08:20;;;;;;;23.90;22.35;;;;;;;17.50;100.00;100921.25;5072478;28;20028;-74
2022/09/13 00:10:46;;;;;;;20.67;19.17;;;;;;;17.42;100.00;100908.06;5054768;28;20032;-74
2022/09/13 00:13:13;;;;;;;23.73;22.42;;;;;;;17.53;100.00;100917.38;5071650;28;20052;-74
2022/09/13 00:15:44;;;;;;;30.05;28.08;;;;;;;17.53;100.00;100918.22;5075249;28;20086;-74
2022/09/13 00:18:09;;;;;;;23.67;21.85;;;;;;;17.50;100.00;100915.09;5074989;28;20523;-74
2022/09/13 00:20:35;;;;;;;25.10;23.40;;;;;;;17.38;100.00;100896.97;5071762;28;20055;-75
2022/09/13 00:23:00;;;;;;;26.33;24.55;;;;;;;17.43;100.00;100907.88;5046824;28;20408;-75
2022/09/13 00:25:25;;;;;;;26.48;24.55;;;;;;;17.36;100.00;100887.50;5072182;28;20060;-75
2022/09/13 00:27:51;;;;;;;23.75;22.00;;;;;;;17.42;100.00;100902.72;5076514;28;20020;-75
2022/09/13 00:30:16;;;;;;;28.02;26.02;;;;;;;17.34;100.00;100892.22;5076253;28;20017;-74
2022/09/13 00:32:41;;;;;;;26.40;24.27;;;;;;;17.26;100.00;100893.97;5071692;28;20033;-74
2022/09/13 00:35:07;;;;;;;27.65;25.67;;;;;;;17.27;100.00;100894.84;5071041;28;20036;-74
2022/09/13 00:37:33;;;;;;;26.92;25.17;;;;;;;17.23;100.00;100888.22;5075181;28;20024;-74
2022/09/13 00:40:03;;;;;;;30.00;28.15;;;;;;;17.10;100.00;100867.59;5075904;28;20059;-74
2022/09/13 00:42:31;;;;;;;27.65;25.90;;;;;;;17.06;100.00;100869.00;5075136;28;20435;-74
2022/09/13 00:45:02;;;;;;;30.20;28.08;;;;;;;17.10;100.00;100870.28;5074184;28;20030;-74
2022/09/13 00:47:39;;;;;;;25.77;23.83;;;;;;;17.06;100.00;100871.66;5074587;28;20040;-74
2022/09/13 00:50:13;;;;;;;30.60;28.73;;;;;;;17.09;100.00;100865.94;5078870;28;20480;-74
2022/09/13 00:52:39;;;;;;;30.25;28.60;;;;;;;17.07;100.00;100867.97;5081242;28;20055;-74
2022/09/13 00:55:17;;;;;;;27.08;25.27;;;;;;;17.10;100.00;100878.28;5085077;28;20459;-74
2022/09/13 00:57:43;;;;;;;26.27;24.85;;;;;;;16.95;100.00;100857.00;5080878;28;20032;-74
2022/09/13 01:00:12;;;;;;;25.70;23.92;;;;;;;17.04;100.00;100873.69;5077990;28;20040;-77
2022/09/13 01:03:05;;;;;;;27.20;25.63;;;;;;;17.03;100.00;100866.72;5082502;28;20484;-77
2022/09/13 01:05:46;;;;;;;25.13;23.17;;;;;;;17.02;100.00;100867.72;5076936;28;20024;-77
2022/09/13 01:08:21;;;;;;;24.47;23.03;;;;;;;16.95;100.00;100864.19;5080005;28;20012;-77
2022/09/13 01:10:48;;;;;;;25.67;23.90;;;;;;;17.01;100.00;100874.09;5070827;28;20024;-77
2022/09/13 01:13:22;;;;;;;24.70;23.13;;;;;;;16.98;100.00;100855.78;5081975;28;20017;-77
2022/09/13 01:15:48;;;;;;;24.38;22.65;;;;;;;16.82;100.00;100839.06;5083106;28;20020;-78
2022/09/13 01:18:14;;;;;;;23.02;21.63;;;;;;;17.08;100.00;100866.97;5063052;28;20028;-78
2022/09/13 01:20:45;;;;;;;22.67;21.38;;;;;;;17.09;100.00;100854.47;5083226;28;20089;-77
2022/09/13 01:23:30;;;;;;;25.70;24.13;;;;;;;17.14;100.00;100852.88;5078088;28;20112;-77
2022/09/13 01:26:29;;;;;;;23.50;22.10;;;;;;;17.15;100.00;100856.34;5065735;28;20074;-77
2022/09/13 01:29:26;;;;;;;21.92;20.45;;;;;;;17.12;100.00;100844.25;5080164;28;20043;-77
2022/09/13 01:32:03;;;;;;;24.33;23.05;;;;;;;17.15;100.00;100835.03;5082808;28;20044;-77
2022/09/13 01:34:43;;;;;;;23.38;22.08;;;;;;;17.27;100.00;100852.16;5084283;28;20136;-77
2022/09/13 01:37:09;;;;;;;25.27;23.30;;;;;;;17.29;100.00;100855.44;5081859;28;20036;-76
2022/09/13 01:39:34;;;;;;;23.45;21.90;;;;;;;17.32;100.00;100848.91;5078945;28;20046;-77
2022/09/13 01:42:20;;;;;;;23.52;21.92;;;;;;;17.20;100.00;100824.59;5083611;28;20028;-77
2022/09/13 01:45:11;;;;;;;26.70;24.75;;;;;;;17.21;100.00;100826.25;5080570;28;20051;-77
2022/09/13 01:47:56;;;;;;;22.90;21.27;;;;;;;17.02;100.00;100822.41;5080320;28;20528;-76
2022/09/13 01:50:39;;;;;;;25.42;23.67;;;;;;;17.02;100.00;100828.56;5081190;28;20024;-76
2022/09/13 01:53:18;;;;;;;24.38;22.92;;;;;;;17.04;100.00;100839.03;5078718;28;20021;-77
2022/09/13 01:55:50;;;;;;;23.27;21.67;;;;;;;17.06;100.00;100829.81;5081043;28;20484;-77
2022/09/13 01:58:34;;;;;;;24.85;23.05;;;;;;;17.11;100.00;100829.25;5081624;28;20031;-77
2022/09/13 02:01:15;;;;;;;24.27;22.38;;;;;;;17.01;100.00;100799.44;5077599;28;20024;-77
2022/09/13 02:03:49;;;;;;;24.52;22.70;;;;;;;17.12;100.00;100828.25;5073950;28;20099;-77
2022/09/13 02:06:21;;;;;;;24.98;23.05;;;;;;;17.15;100.00;100825.16;5074610;28;20034;-77
2022/09/13 02:08:53;;;;;;;29.17;26.98;;;;;;;17.15;100.00;100819.84;5060611;28;20541;-78
2022/09/13 02:11:21;;;;;;;25.27;23.42;;;;;;;17.12;100.00;100809.56;5077875;28;20016;-77
2022/09/13 02:13:56;;;;;;;24.10;22.33;;;;;;;17.12;100.00;100806.91;5084813;28;20031;-77
2022/09/13 02:16:30;;;;;;;27.15;24.80;;;;;;;17.25;100.00;100825.66;5078013;28;20541;-77
2022/09/13 02:19:01;;;;;;;20.80;19.27;;;;;;;17.25;100.00;100823.00;5080480;28;20411;-77
2022/09/13 02:21:31;;;;;;;24.17;22.58;;;;;;;17.21;100.00;100813.72;5081935;28;20081;-77
2022/09/13 02:24:04;;;;;;;26.98;25.08;;;;;;;17.25;100.00;100812.34;5072372;28;20082;-77
2022/09/13 02:26:33;;;;;;;25.42;23.52;;;;;;;17.35;100.00;100824.50;5076701;28;20028;-78
2022/09/13 02:29:03;;;;;;;24.77;23.00;;;;;;;17.26;100.00;100807.81;5086577;28;20311;-77
2022/09/13 02:31:35;;;;;;;23.23;21.55;;;;;;;17.26;100.00;100802.47;5074475;28;20022;-77
2022/09/13 02:34:27;;;;;;;25.13;23.40;;;;;;;17.40;100.00;100830.09;5078857;28;20024;-77
2022/09/13 02:36:55;;;;;;;22.55;21.17;;;;;;;17.34;100.00;100817.53;5076064;28;20090;-77
2022/09/13 02:39:24;;;;;;;21.25;19.60;;;;;;;17.54;100.00;100826.47;5069809;28;20036;-77
2022/09/13 02:42:05;;;;;;;22.38;20.85;;;;;;;17.51;100.00;100836.69;5073812;28;20063;-77
2022/09/13 02:44:37;;;;;;;25.65;23.70;;;;;;;17.51;100.00;100826.88;5073203;28;20020;-76
2022/09/13 02:47:13;;;;;;;21.90;20.52;;;;;;;17.54;100.00;100837.13;5077500;28;20033;-76
2022/09/13 02:50:02;;;;;;;24.75;23.17;;;;;;;17.52;100.00;100844.50;5056988;28;20021;-76
2022/09/13 02:52:56;;;;;;;21.35;20.10;;;;;;;17.53;100.00;100838.16;5077676;28;20032;-76
2022/09/13 02:55:31;;;;;;;24.05;22.63;;;;;;;17.40;100.00;100819.41;5058692;28;20064;-76
2022/09/13 02:58:08;;;;;;;24.88;23.52;;;;;;;17.45;100.00;100827.66;5074941;28;20028;-77
2022/09/13 03:00:34;;;;;;;19.20;18.20;;;;;;;17.55;100.00;100846.81;5068850;28;20727;-77
2022/09/13 03:03:05;;;;;;;20.67;19.17;;;;;;;17.57;100.00;100836.75;5073952;28;20043;-77
2022/09/13 03:05:30;;;;;;;20.13;19.25;;;;;;;17.44;100.00;100807.31;5071921;28;20499;-76
2022/09/13 03:07:58;;;;;;;21.38;20.38;;;;;;;17.58;100.00;100833.06;5075784;28;20051;-76
2022/09/13 03:10:30;;;;;;;17.27;16.38;;;;;;;17.58;100.00;100833.06;5080596;28;20036;-76
2022/09/13 03:13:25;;;;;;;18.70;17.88;;;;;;;17.54;100.00;100823.78;5072932;28;20116;-77
2022/09/13 03:16:03;;;;;;;22.52;21.27;;;;;;;17.60;100.00;100840.88;5040537;28;20430;-79
2022/09/13 03:18:51;;;;;;;19.58;18.77;;;;;;;17.42;100.00;100817.34;5071585;28;20016;-76
2022/09/13 03:21:36;;;;;;;20.17;19.38;;;;;;;17.65;100.00;100843.78;5081337;28;20039;-76
2022/09/13 03:24:32;;;;;;;19.98;18.90;;;;;;;17.64;100.00;100845.63;5078541;28;20021;-76
2022/09/13 03:27:56;;;;;;;19.75;18.95;;;;;;;17.63;100.00;100838.63;5076764;28;20043;-76
2022/09/13 03:30:22;;;;;;;22.48;21.42;;;;;;;17.67;100.00;100847.06;4962042;28;20041;-76
2022/09/13 03:32:49;;;;;;;20.52;19.63;;;;;;;17.64;100.00;100842.94;4986023;28;20050;-76
2022/09/13 03:35:39;;;;;;;18.88;18.05;;;;;;;17.61;100.00;100843.31;4983218;28;20458;-76
2022/09/13 03:38:24;;;;;;;21.73;20.58;;;;;;;17.62;100.00;100845.00;4971982;28;20041;-76
2022/09/13 03:41:01;;;;;;;20.02;18.92;;;;;;;17.66;100.00;100845.44;4982578;28;20970;-76
2022/09/13 03:43:36;;;;;;;18.73;17.95;;;;;;;17.60;100.00;100841.69;4986081;28;20037;-76
2022/09/13 03:46:26;;;;;;;19.00;18.20;;;;;;;17.59;100.00;100845.38;4979121;28;20031;-76
2022/09/13 03:48:53;;;;;;;20.73;19.93;;;;;;;17.44;100.00;100820.66;4977773;28;20080;-76
2022/09/13 03:51:18;;;;;;;21.02;19.80;;;;;;;17.59;100.00;100848.03;4980112;28;20643;-76
2022/09/13 03:53:58;;;;;;;18.50;17.60;;;;;;;17.62;100.00;100839.66;4985187;28;20038;-76
2022/09/13 03:56:23;;;;;;;17.33;16.63;;;;;;;17.56;100.00;100836.94;4980948;28;20142;-76
2022/09/13 03:58:49;;;;;;;19.13;18.33;;;;;;;17.51;100.00;100828.69;4969662;28;20422;-76
2022/09/13 04:01:20;;;;;;;18.50;17.70;;;;;;;17.49;100.00;100828.91;4982066;28;20031;-76
2022/09/13 04:03:46;;;;;;;19.15;18.33;;;;;;;17.54;100.00;100847.81;5001806;28;20040;-76
2022/09/13 04:06:12;;;;;;;18.88;18.17;;;;;;;17.52;100.00;100849.03;5078012;28;20391;-76
2022/09/13 04:08:37;;;;;;;19.58;18.77;;;;;;;17.52;100.00;100851.69;5082605;28;20028;-76
2022/09/13 04:11:03;;;;;;;18.75;17.85;;;;;;;17.50;100.00;100851.88;5055667;28;20086;-76
2022/09/13 04:13:28;;;;;;;19.30;18.58;;;;;;;17.50;100.00;100857.22;5070289;28;20020;-76
2022/09/13 04:15:53;;;;;;;18.40;17.70;;;;;;;17.47;100.00;100852.28;5079376;28;20443;-76
2022/09/13 04:18:19;;;;;;;19.95;18.95;;;;;;;17.46;100.00;100847.94;5063425;28;20120;-76
2022/09/13 04:20:55;;;;;;;19.70;18.77;;;;;;;17.45;100.00;100849.81;5076719;28;20028;-76
2022/09/13 04:23:22;;;;;;;19.10;18.40;;;;;;;17.45;100.00;100854.31;5079027;28;20032;-76
2022/09/13 04:25:47;;;;;;;18.23;17.52;;;;;;;17.48;100.00;100848.59;5076575;28;20021;-76
2022/09/13 04:28:12;;;;;;;20.08;19.27;;;;;;;17.45;100.00;100857.81;5060258;28;20033;-76
2022/09/13 04:30:38;;;;;;;22.25;21.38;;;;;;;17.39;100.00;100847.91;5072889;28;20021;-76
2022/09/13 04:33:03;;;;;;;17.98;17.30;;;;;;;17.44;100.00;100850.00;5078459;28;20024;-76
2022/09/13 04:35:28;;;;;;;18.20;17.50;;;;;;;17.32;100.00;100835.56;5076451;28;20052;-76
2022/09/13 04:37:55;;;;;;;16.25;15.55;;;;;;;17.43;100.00;100846.50;5044492;28;20033;-76
2022/09/13 04:40:22;;;;;;;17.35;16.73;;;;;;;17.35;100.00;100837.81;5059622;28;20106;-76
2022/09/13 04:42:47;;;;;;;17.02;16.42;;;;;;;17.44;100.00;100848.16;5060169;28;20056;-76
2022/09/13 04:45:13;;;;;;;17.10;16.45;;;;;;;17.46;100.00;100867.47;5074860;28;20086;-76
2022/09/13 04:47:38;;;;;;;16.15;15.50;;;;;;;17.42;100.00;100855.53;5078398;28;20020;-76
2022/09/13 04:50:04;;;;;;;16.95;16.15;;;;;;;17.40;100.00;100846.91;5075355;28;20135;-76
2022/09/13 04:52:29;;;;;;;16.80;16.10;;;;;;;17.44;100.00;100864.19;5053690;28;20070;-76
2022/09/13 04:54:57;;;;;;;17.80;16.52;;;;;;;17.42;100.00;100870.69;5080608;28;20039;-76
2022/09/13 04:57:22;;;;;;;17.25;16.55;;;;;;;17.43;100.00;100869.69;5075260;28;20028;-76
2022/09/13 04:59:48;;;;;;;18.65;17.95;;;;;;;17.44;100.00;100866.84;5057549;28;20047;-76
2022/09/13 05:02:13;;;;;;;19.02;18.30;;;;;;;17.42;100.00;100855.53;5067379;28;20028;-76
2022/09/13 05:04:38;;;;;;;19.30;18.42;;;;;;;17.46;100.00;100866.63;5048955;28;20060;-76
2022/09/13 05:07:04;;;;;;;21.27;20.48;;;;;;;17.46;100.00;100870.16;5050547;28;20106;-76
2022/09/13 05:09:29;;;;;;;20.83;20.10;;;;;;;17.48;100.00;100877.94;5066566;28;20558;-76
2022/09/13 05:11:55;;;;;;;22.55;21.67;;;;;;;17.47;100.00;100878.97;5050281;28;20178;-76
2022/09/13 05:14:21;;;;;;;19.65;18.92;;;;;;;17.41;100.00;100887.75;5049974;28;20036;-77
2022/09/13 05:16:46;;;;;;;19.42;18.30;;;;;;;17.26;100.00;100875.31;5060932;28;20127;-77
2022/09/13 05:19:12;;;;;;;19.52;18.75;;;;;;;17.30;100.00;100898.94;5074115;28;20028;-76
2022/09/13 05:21:37;;;;;;;19.40;18.70;;;;;;;17.32;100.00;100903.06;5064119;28;20031;-76
2022/09/13 05:24:03;;;;;;;18.85;17.92;;;;;;;17.28;100.00;100902.63;5074183;28;20029;-76
2022/09/13 05:26:30;;;;;;;17.67;16.92;;;;;;;17.25;100.00;100900.34;5063201;28;20427;-76
2022/09/13 05:28:56;;;;;;;15.27;14.57;;;;;;;17.26;100.00;100901.16;5061173;28;20356;-76
2022/09/13 05:31:42;;;;;;;20.50;19.70;;;;;;;17.26;100.00;100896.66;5065288;28;20039;-76
2022/09/13 05:34:13;;;;;;;16.15;15.55;;;;;;;17.23;100.00;100893.56;5044724;28;20039;-76
2022/09/13 05:36:40;;;;;;;16.83;16.17;;;;;;;17.24;100.00;100890.69;5064242;28;20059;-76
2022/09/13 05:39:06;;;;;;;16.35;15.73;;;;;;;17.25;100.00;100889.69;5068888;28;20041;-77
2022/09/13 05:41:32;;;;;;;20.73;19.52;;;;;;;17.27;100.00;100894.84;5068968;28;20086;-77
2022/09/13 05:43:58;;;;;;;18.77;17.88;;;;;;;17.26;100.00;100887.81;5073857;28;20082;-76
2022/09/13 05:46:23;;;;;;;17.48;16.70;;;;;;;17.28;100.00;100886.63;5066734;28;20040;-75
2022/09/13 05:48:49;;;;;;;18.73;17.92;;;;;;;17.21;100.00;100874.25;5067774;28;20123;-75
2022/09/13 05:51:18;;;;;;;15.93;15.02;;;;;;;17.42;100.00;100898.22;5068395;28;20032;-75
2022/09/13 05:53:47;;;;;;;17.48;16.48;;;;;;;17.45;100.00;100891.69;5066667;28;20448;-75
2022/09/13 05:56:15;;;;;;;18.50;17.77;;;;;;;17.52;100.00;100895.22;5068950;28;20077;-75
2022/09/13 05:58:43;;;;;;;21.23;20.23;;;;;;;17.60;100.00;100900.41;5067984;28;20156;-75
2022/09/13 06:01:09;;;;;;;17.40;16.60;;;;;;;17.59;100.00;100897.91;5065758;28;20032;-76
2022/09/13 06:03:36;;;;;;;19.42;18.58;;;;;;;17.65;100.00;100897.97;5069416;28;20143;-76
2022/09/13 06:06:02;;;;;;;17.67;17.00;;;;;;;17.66;100.00;100893.47;5067066;28;20016;-75
2022/09/13 06:08:31;;;;;;;15.82;15.02;;;;;;;17.77;100.00;100900.09;5069690;28;20098;-75
2022/09/13 06:10:58;;;;;;;17.02;16.35;;;;;;;17.65;100.00;100881.94;5076794;28;20032;-75
2022/09/13 06:13:25;;;;;;;15.65;15.05;;;;;;;17.84;100.00;100903.66;5084828;28;20639;-75
2022/09/13 06:15:53;;;;;;;15.93;15.35;;;;;;;17.91;100.00;100907.19;5082256;28;20036;-75
2022/09/13 06:18:19;;;;;;;18.30;17.58;;;;;;;17.97;100.00;100913.59;5074072;28;20036;-75
2022/09/13 06:20:45;;;;;;;18.48;17.58;;;;;;;18.00;100.00;100910.53;5070791;28;20546;-75
2022/09/13 06:23:11;;;;;;;19.52;18.40;;;;;;;17.97;100.00;100911.75;5074825;28;20106;-75
2022/09/13 06:25:36;;;;;;;15.23;14.30;;;;;;;17.97;100.00;100914.41;5068147;28;20028;-75
2022/09/13 06:28:02;;;;;;;14.25;13.52;;;;;;;17.83;100.00;100900.19;5083822;28;20488;-75
2022/09/13 06:30:27;;;;;;;13.43;12.88;;;;;;;17.96;100.00;100915.44;5073009;28;20032;-77
2022/09/13 06:32:55;;;;;;;17.30;12.52;;;;;;;17.97;100.00;100910.94;5085620;28;20051;-75
2022/09/13 06:35:21;;;;;;;13.27;12.48;;;;;;;18.05;100.00;100916.09;5073112;28;20052;-75
2022/09/13 06:37:46;;;;;;;13.32;12.73;;;;;;;18.12;100.00;100918.78;5079835;28;20036;-75
2022/09/13 06:40:12;;;;;;;11.77;11.35;;;;;;;18.02;100.00;100901.28;5076310;28;20067;-75
2022/09/13 06:42:38;;;;;;;10.30;9.60;;;;;;;18.13;100.00;100920.47;5053930;28;20113;-75
2022/09/13 06:45:04;;;;;;;8.43;8.13;;;;;;;18.13;99.68;100915.94;5072663;28;20025;-75
2022/09/13 06:47:30;;;;;;;7.90;7.60;;;;;;;18.05;98.50;100903.59;5051790;28;20507;-76
2022/09/13 06:49:56;;;;;;;8.10;7.47;;;;;;;18.19;97.83;100915.16;5069046;28;20029;-75
2022/09/13 06:52:21;;;;;;;9.63;9.27;;;;;;;18.23;96.52;100915.59;5065081;28;20059;-75
2022/09/13 06:54:47;;;;;;;8.68;8.27;;;;;;;18.07;95.44;100896.19;5077142;28;20056;-75
2022/09/13 06:57:12;;;;;;;7.13;6.82;;;;;;;18.30;94.37;100916.44;5059416;28;20126;-75
2022/09/13 06:59:38;;;;;;;7.35;6.85;;;;;;;18.37;94.49;100901.25;5078264;28;20025;-75
2022/09/13 07:02:03;;;;;;;8.45;7.80;;;;;;;18.56;92.87;100909.53;5056636;28;20832;-77
2022/09/13 07:04:32;;;;;;;8.25;7.57;;;;;;;18.67;92.83;100903.59;5068015;28;20032;-75
2022/09/13 07:06:58;;;;;;;5.82;5.63;;;;;;;18.68;91.92;100915.94;5071478;28;20030;-75
2022/09/13 07:09:24;;;;;;;6.90;6.60;;;;;;;18.67;90.07;100900.94;5072045;28;20039;-75
2022/09/13 07:11:52;;;;;;;5.63;5.43;;;;;;;18.75;88.98;100907.91;5074598;28;20035;-76
2022/09/13 07:14:21;;;;;;;6.47;6.18;;;;;;;18.97;88.99;100927.34;5082721;28;20028;-76
2022/09/13 07:16:47;;;;;;;6.65;6.30;;;;;;;19.18;87.77;100923.66;5079233;28;20020;-75
2022/09/13 07:19:17;;;;;;;5.25;5.00;;;;;;;19.66;87.00;100931.47;5075004;28;20039;-76
2022/09/13 07:21:43;;;;;;;4.22;4.03;;;;;;;20.46;85.40;100936.63;5075231;28;20036;-76
2022/09/13 07:24:09;;;;;;;3.05;2.60;;;;;;;21.47;82.84;100932.31;5069033;28;20055;-76
2022/09/13 07:26:35;;;;;;;2.33;2.17;;;;;;;22.35;77.75;100945.47;5081083;28;20028;-76
2022/09/13 07:29:04;;;;;;;1.60;0.98;;;;;;;22.37;75.75;100932.63;5064094;28;20025;-76
2022/09/13 07:31:33;;;;;;;1.52;1.00;;;;;;;22.14;74.33;100944.03;5075207;28;20123;-76
2022/09/13 07:34:01;;;;;;;1.05;1.00;;;;;;;22.75;73.90;100933.38;5070897;28;20537;-76
2022/09/13 07:36:28;;;;;;;1.20;1.10;;;;;;;23.25;72.52;100943.81;5070561;28;20040;-76
2022/09/13 07:38:54;;;;;;;2.85;1.33;;;;;;;23.28;69.96;100948.75;5065695;28;20030;-76
2022/09/13 07:41:21;;;;;;;2.35;1.35;;;;;;;23.78;69.33;100948.34;5071350;28;20032;-76
2022/09/13 07:43:47;;;;;;;1.73;1.40;;;;;;;24.10;68.14;100956.03;5076959;28;20028;-75
2022/09/13 07:46:15;;;;;;;5.40;1.30;;;;;;;24.50;67.65;100938.22;5059900;28;20031;-75
2022/09/13 07:48:42;;;;;;;3.83;1.08;;;;;;;25.10;63.74;100945.00;5080123;28;20043;-75
2022/09/13 07:51:11;;;;;;;2.17;1.10;;;;;;;25.40;64.16;100969.03;5076181;28;20031;-75
2022/09/13 07:53:37;;;;;;;2.95;1.30;;;;;;;25.70;61.25;100957.88;5081235;28;20103;-76
2022/09/13 07:56:07;;;;;;;3.85;0.90;;;;;;;25.57;60.82;100969.84;5072924;28;20036;-75
2022/09/13 07:58:33;;;;;;;2.58;1.00;;;;;;;25.83;62.25;100973.72;5074217;28;20024;-74
2022/09/13 08:01:10;;;;;;;2.58;0.80;;;;;;;26.77;59.19;100968.44;5072987;28;20033;-74
2022/09/13 08:03:36;;;;;;;1.63;0.90;;;;;;;27.11;58.09;100965.50;5074042;28;20038;-74
2022/09/13 08:06:03;;;;;;;1.23;0.80;;;;;;;27.68;55.67;100975.75;5080772;28;20024;-75
2022/09/13 08:08:29;;;;;;;3.40;0.95;;;;;;;28.12;55.07;100972.75;5071509;28;20502;-77
2022/09/13 08:10:54;;;;;;;2.63;0.80;;;;;;;28.45;52.89;100976.13;5073339;28;20106;-76
2022/09/13 08:13:20;;;;;;;2.20;0.68;;;;;;;28.09;52.53;100984.13;5076166;28;20025;-75
2022/09/13 08:15:45;;;;;;;1.40;0.95;;;;;;;28.16;51.50;100987.44;5072256;28;20396;-75
2022/09/13 08:18:11;;;;;;;1.48;0.93;;;;;;;28.09;52.40;100978.69;5070410;28;20109;-77
2022/09/13 08:20:38;;;;;;;1.55;0.80;;;;;;;28.92;52.27;100988.78;5073533;28;20020;-76
2022/09/13 08:23:05;;;;;;;2.67;0.95;;;;;;;29.04;51.06;100986.59;5077487;28;20038;-76
2022/09/13 08:25:34;;;;;;;3.20;1.40;;;;;;;29.37;49.48;100989.91;5049110;28;20132;-76
2022/09/13 08:28:08;;;;;;;1.25;1.10;;;;;;;30.06;48.76;100988.44;5056430;28;20123;-76
2022/09/13 08:30:35;;;;;;;3.97;1.50;;;;;;;30.50;47.75;100989.66;5063487;28;20039;-77
2022/09/13 08:33:04;;;;;;;1.63;1.42;;;;;;;31.07;47.01;100990.94;5068655;28;20113;-77
2022/09/13 08:35:30;;;;;;;1.52;1.38;;;;;;;31.19;47.11;100989.78;5067924;28;20067;-77
2022/09/13 08:37:56;;;;;;;2.13;1.48;;;;;;;31.55;45.71;100995.75;5073580;28;20036;-76
2022/09/13 08:40:24;;;;;;;2.15;1.55;;;;;;;31.13;45.20;100995.28;5073504;28;20024;-77
2022/09/13 08:42:55;;;;;;;1.85;1.65;;;;;;;30.59;47.49;100995.34;5069457;28;20031;-77
2022/09/13 08:45:22;;;;;;;1.88;1.52;;;;;;;30.60;46.70;100965.09;5067026;28;20028;-77
2022/09/13 08:47:55;;;;;;;3.35;1.48;;;;;;;30.23;48.16;100981.88;5054996;28;20036;-77
2022/09/13 08:50:35;;;;;;;1.88;1.77;;;;;;;29.53;48.62;100977.13;5066640;28;20024;-77
2022/09/13 08:53:00;;;;;;;1.92;1.30;;;;;;;29.58;48.40;100990.72;5051329;28;20036;-77
2022/09/13 08:55:57;;;;;;;3.23;1.57;;;;;;;29.22;49.99;100992.63;5071578;28;20039;-76
2022/09/13 08:58:35;;;;;;;4.32;1.30;;;;;;;30.32;49.09;100981.03;5066992;28;20042;-76
2022/09/13 09:01:09;;;;;;;1.50;1.25;;;;;;;31.66;46.10;100983.66;5071711;28;20024;-76
2022/09/13 09:03:40;;;;;;;2.45;1.50;;;;;;;31.55;45.92;100977.50;5073247;28;20116;-76
2022/09/13 09:06:12;;;;;;;2.72;1.92;;;;;;;30.81;47.07;100976.66;5069396;28;20115;-76
2022/09/13 09:09:18;;;;;;;2.50;2.00;;;;;;;31.82;44.78;100986.22;5070687;28;20025;-76
2022/09/13 09:12:02;;;;;;;5.15;1.70;;;;;;;32.60;42.24;100979.56;4983175;28;20030;-76
2022/09/13 09:14:32;;;;;;;2.10;1.90;;;;;;;31.45;43.59;100988.50;4986114;28;20487;-76
2022/09/13 09:17:02;;;;;;;2.65;2.05;;;;;;;31.23;43.77;100969.00;4978677;28;20038;-76
2022/09/13 09:19:43;;;;;;;3.53;1.52;;;;;;;30.47;45.18;100968.44;4979344;28;20039;-76
2022/09/13 09:22:16;;;;;;;1.92;1.80;;;;;;;31.02;44.97;100984.75;4978590;28;20034;-76
2022/09/13 09:24:47;;;;;;;2.78;1.40;;;;;;;30.88;45.21;100987.28;4978915;28;20084;-77
2022/09/13 09:27:18;;;;;;;1.52;1.42;;;;;;;30.58;45.00;100964.56;4986579;28;20042;-77
2022/09/13 09:29:47;;;;;;;3.40;1.75;;;;;;;31.13;45.97;100980.84;4984283;28;20517;-76
2022/09/13 09:32:18;;;;;;;4.15;1.75;;;;;;;32.03;43.06;100992.28;4971664;28;20064;-76
2022/09/13 09:34:50;;;;;;;2.78;2.00;;;;;;;32.39;42.84;100985.28;4983959;28;20058;-76
2022/09/13 09:37:21;;;;;;;2.78;1.65;;;;;;;33.23;42.32;100994.75;4986329;28;20138;-76
2022/09/13 09:39:48;;;;;;;2.63;1.95;;;;;;;31.89;42.69;100997.59;4985602;28;20061;-77
2022/09/13 09:42:17;;;;;;;2.92;2.10;;;;;;;30.58;46.14;100996.44;4962311;28;20065;-77
2022/09/13 09:44:48;;;;;;;3.80;1.80;;;;;;;30.65;45.87;100989.56;4991883;28;20041;-77
2022/09/13 09:47:27;;;;;;;2.30;1.17;;;;;;;29.63;47.04;100970.84;5071142;28;20048;-77
2022/09/13 09:50:09;;;;;;;1.50;0.95;;;;;;;28.34;50.45;100982.63;5069206;28;20020;-77
2022/09/13 09:52:50;;;;;;;2.20;0.88;;;;;;;27.05;52.93;100968.16;5066781;28;20025;-77
2022/09/13 09:55:28;;;;;;;1.17;0.63;;;;;;;26.34;54.15;100979.03;5073683;28;20036;-76
2022/09/13 09:58:07;;;;;;;2.85;0.82;;;;;;;27.39;53.20;100977.94;5073165;28;20032;-76
2022/09/13 10:00:51;;;;;;;0.88;0.60;;;;;;;27.57;51.88;100985.69;5070827;28;20504;-76
2022/09/13 10:03:28;;;;;;;0.90;0.55;;;;;;;27.57;52.45;100984.84;5078979;28;20468;-76
2022/09/13 10:06:17;;;;;;;1.65;0.80;;;;;;;29.07;48.57;100990.69;5079159;28;20487;-76
2022/09/13 10:09:07;;;;;;;1.73;0.60;;;;;;;30.21;45.25;100963.09;5077668;28;20025;-76
2022/09/13 10:11:49;;;;;;;1.20;0.73;;;;;;;31.47;43.74;100989.03;5076435;28;20543;-76
2022/09/13 10:14:40;;;;;;;1.90;1.05;;;;;;;31.80;43.17;100983.78;5057667;28;20116;-77
2022/09/13 10:17:25;;;;;;;2.05;1.17;;;;;;;32.93;41.44;100987.84;5079480;28;20027;-76
2022/09/13 10:19:57;;;;;;;1.60;1.50;;;;;;;33.60;40.90;100990.28;5076325;28;20028;-76
2022/09/13 10:22:23;;;;;;;3.10;1.50;;;;;;;34.37;39.59;100983.31;5076764;28;20027;-76
2022/09/13 10:24:49;;;;;;;3.20;1.50;;;;;;;35.02;38.12;100990.34;5081036;28;20039;-76
2022/09/13 10:27:38;;;;;;;1.70;1.60;;;;;;;34.54;39.13;100985.44;5073403;28;20017;-76
2022/09/13 10:30:05;;;;;;;2.05;1.58;;;;;;;35.68;36.28;100989.81;5075347;28;20047;-76
2022/09/13 10:32:32;;;;;;;2.00;1.60;;;;;;;35.26;37.42;100990.06;5071264;28;20055;-76
2022/09/13 10:35:08;;;;;;;2.22;1.77;;;;;;;35.77;37.17;100987.91;5075873;28;20135;-76
2022/09/13 10:37:35;;;;;;;2.05;1.75;;;;;;;34.93;37.06;100987.56;5072562;28;20024;-76
2022/09/13 10:40:01;;;;;;;4.22;2.28;;;;;;;33.50;39.23;100991.28;5076750;28;20039;-76
2022/09/13 10:42:28;;;;;;;2.00;1.90;;;;;;;32.49;41.06;100988.97;5076707;28;20409;-77
2022/09/13 10:45:07;;;;;;;3.83;1.98;;;;;;;32.53;40.92;100984.56;5057479;28;20066;-76
2022/09/13 10:47:49;;;;;;;3.30;1.60;;;;;;;32.20;42.15;100972.69;5071282;28;20036;-76
2022/09/13 10:50:28;;;;;;;3.85;1.67;;;;;;;32.92;41.63;100986.19;5072708;28;20098;-76
2022/09/13 10:52:55;;;;;;;2.33;1.77;;;;;;;31.72;43.76;100971.56;5072068;28;20071;-77
2022/09/13 10:55:21;;;;;;;4.35;1.70;;;;;;;32.62;42.71;100988.28;5069577;28;20107;-77
2022/09/13 10:57:49;;;;;;;1.85;1.70;;;;;;;33.07;41.46;100988.72;5071172;28;20509;-76
2022/09/13 11:00:20;;;;;;;3.83;2.10;;;;;;;33.66;41.23;100988.28;5076772;28;20031;-76
2022/09/13 11:03:23;;;;;;;2.25;1.83;;;;;;;32.95;41.24;100982.88;5072089;28;20036;-77
2022/09/13 11:05:59;;;;;;;3.78;2.65;;;;;;;32.58;42.18;100979.88;5075846;28;20042;-76
2022/09/13 11:08:37;;;;;;;3.83;1.80;;;;;;;33.95;40.65;100983.34;5073763;28;20008;-76
2022/09/13 11:11:06;;;;;;;2.10;1.88;;;;;;;35.01;38.85;100991.47;5071726;28;20111;-76
2022/09/13 11:13:51;;;;;;;4.05;1.95;;;;;;;36.09;38.50;100994.16;5073079;28;20059;-76
2022/09/13 11:16:30;;;;;;;2.60;1.80;;;;;;;35.54;36.92;100992.63;5076147;28;20069;-77
2022/09/13 11:19:05;;;;;;;3.38;1.73;;;;;;;34.12;39.12;100993.69;5056098;28;20027;-78
2022/09/13 11:21:39;;;;;;;3.38;2.17;;;;;;;34.79;39.01;100993.06;5061121;28;20085;-77
2022/09/13 11:24:20;;;;;;;2.13;1.92;;;;;;;34.60;38.44;100989.66;5075167;28;20024;-75
2022/09/13 11:26:57;;;;;;;3.10;1.90;;;;;;;34.31;39.54;100992.78;5076370;28;20093;-75
2022/09/13 11:29:48;;;;;;;3.17;1.73;;;;;;;35.20;39.75;100997.59;5068869;28;20503;-75
2022/09/13 11:32:29;;;;;;;3.58;2.20;;;;;;;35.57;39.57;100994.75;5071086;28;20480;-75